»·PEaware :: SWA470 KSLC-KBIL

SWA470 :: KSLC-KBIL

FLIGHT INFORMATION

Flight Status: Arrived
Operator:
Southwest Airlines
More flights by this operator :: More flights under this callsign
Pilot: Rick E. (42686)
Aircraft: BOEING 737-600
(B736)
More flights by this aircraft type
Origin: KSLC Salt Lake City Intl
United States
Destination: KBIL Billings Logan Intl
United States
More flights between these airports :: More routes between these airports
Route: RUGGD2 HOLTR JEKUG YLSTN3
File this flight plan on PilotEdge
Remarks:
Altitude:
(Current/Filed)
310ft
Speed:
(Current/Filed)
320kts
Departed: 12-Jan-23 05:32 PM
Arrived: 12-Jan-23 06:35 PM
Distance/Time
Traveled:
336nm/1:03
Distance/Time
To Go:
Arrived

Flight Plot

Page will automatically refresh every two minutes.

Flight plan parsing failed; only flown route is shown


Map Options




Map Legend


Flown Route
Filed Route
Departure Airport
Arrival Airport
Navaid (VOR, NDB)
Fix

Horizontal Profiles

Position Reports

Time Latitude Longitude Heading Altitude Ground
Speed
12-Jan-23 17:04 40.788436 -111.985464 72 4231ft 0kts
12-Jan-23 17:05 40.788436 -111.985464 72 4231ft 0kts
12-Jan-23 17:06 40.788436 -111.985464 72 4231ft 0kts
12-Jan-23 17:07 40.788436 -111.985464 72 4231ft 0kts
12-Jan-23 17:08 40.788436 -111.985464 72 4231ft 0kts
12-Jan-23 17:09 40.788436 -111.985464 72 4231ft 0kts
12-Jan-23 17:10 40.788436 -111.985464 72 4231ft 0kts
12-Jan-23 17:11 40.788436 -111.985464 72 4231ft 0kts
12-Jan-23 17:12 40.788436 -111.985464 72 4231ft 0kts
12-Jan-23 17:13 40.788436 -111.985464 72 4232ft 0kts
12-Jan-23 17:14 40.788339 -111.985860 72 4231ft 2kts
12-Jan-23 17:15 40.788022 -111.986256 351 4230ft 0kts
12-Jan-23 17:16 40.788022 -111.986256 350 4230ft 0kts
12-Jan-23 17:17 40.788022 -111.986256 350 4230ft 0kts
12-Jan-23 17:18 40.788022 -111.986257 350 4230ft 0kts
12-Jan-23 17:19 40.788022 -111.986257 350 4230ft 0kts
12-Jan-23 17:21 40.788022 -111.986257 350 4230ft 0kts
12-Jan-23 17:22 40.788023 -111.986257 350 4229ft 0kts
12-Jan-23 17:23 40.788023 -111.986256 350 4229ft 0kts
12-Jan-23 17:24 40.788023 -111.986256 350 4229ft 0kts
12-Jan-23 17:25 40.787876 -111.988949 266 4232ft 12kts
12-Jan-23 17:26 40.788839 -111.993945 356 4238ft 18kts
12-Jan-23 17:27 40.797277 -111.994933 355 4229ft 32kts
12-Jan-23 17:28 40.804856 -111.995802 354 4233ft 23kts
12-Jan-23 17:29 40.807926 -111.996565 269 4227ft 0kts
12-Jan-23 17:30 40.807730 -111.997724 261 4228ft 0kts
12-Jan-23 17:31 40.807615 -111.998897 258 4229ft 15kts
12-Jan-23 17:32 40.778249 -111.995530 175 5755ft 188kts
12-Jan-23 17:33 40.750508 -112.039746 300 7863ft 199kts
12-Jan-23 17:34 40.786482 -112.102801 305 10152ft 187kts
12-Jan-23 17:35 40.822989 -112.163547 305 12596ft 247kts
12-Jan-23 17:36 40.873035 -112.245335 313 14701ft 328kts
12-Jan-23 17:37 40.961689 -112.229635 49 17081ft 383kts
12-Jan-23 17:38 41.013457 -112.103288 62 20441ft 401kts
12-Jan-23 17:39 41.065529 -111.969563 64 23535ft 418kts
12-Jan-23 17:40 41.115130 -111.826262 62 26097ft 435kts
12-Jan-23 17:41 41.212198 -111.747531 5 28502ft 429kts
12-Jan-23 17:42 41.329437 -111.721822 5 31263ft 424kts
12-Jan-23 17:43 41.445216 -111.686466 11 31508ft 427kts
12-Jan-23 17:44 41.559064 -111.641088 11 31514ft 427kts
12-Jan-23 17:44 41.654594 -111.603498 11 31522ft 429kts
12-Jan-23 17:45 41.769065 -111.558300 11 31517ft 427kts
12-Jan-23 17:47 41.903413 -111.523046 4 31563ft 421kts
12-Jan-23 17:48 42.020614 -111.496896 4 31626ft 442kts
12-Jan-23 17:49 42.145296 -111.468422 5 31626ft 458kts
12-Jan-23 17:49 42.249774 -111.444516 4 31632ft 454kts
12-Jan-23 17:50 42.367372 -111.380136 26 31639ft 468kts
12-Jan-23 17:51 42.479002 -111.289131 26 31634ft 470kts
12-Jan-23 17:53 42.610505 -111.182781 26 31547ft 470kts
12-Jan-23 17:54 42.722232 -111.092025 26 31499ft 468kts
12-Jan-23 17:54 42.815473 -111.016011 26 31515ft 474kts
12-Jan-23 17:55 42.928451 -110.923484 26 31568ft 474kts
12-Jan-23 17:56 43.041469 -110.830525 26 31655ft 472kts
12-Jan-23 17:57 43.153953 -110.737608 26 31680ft 471kts
12-Jan-23 17:58 43.265911 -110.644739 26 31666ft 472kts
12-Jan-23 17:59 43.378603 -110.550843 26 31617ft 475kts
12-Jan-23 18:00 43.491647 -110.456248 27 31587ft 475kts
12-Jan-23 18:01 43.604212 -110.361625 27 31603ft 474kts
12-Jan-23 18:02 43.715450 -110.267689 27 31651ft 474kts
12-Jan-23 18:03 43.827145 -110.172885 27 29531ft 454kts
12-Jan-23 18:04 43.935763 -110.080450 27 27728ft 458kts
12-Jan-23 18:05 44.044369 -109.987556 27 26285ft 463kts
12-Jan-23 18:06 44.152826 -109.894314 27 25140ft 453kts
12-Jan-23 18:07 44.258419 -109.803163 27 24070ft 430kts
12-Jan-23 18:08 44.357782 -109.724405 21 22925ft 394kts
12-Jan-23 18:09 44.455770 -109.656334 21 21847ft 392kts
12-Jan-23 18:10 44.553234 -109.587488 21 20896ft 387kts
12-Jan-23 18:11 44.649829 -109.518966 22 19978ft 390kts
12-Jan-23 18:12 44.745150 -109.450878 22 18898ft 381kts
12-Jan-23 18:13 44.838616 -109.383991 22 17743ft 378kts
12-Jan-23 18:14 44.931984 -109.316932 21 16635ft 373kts
12-Jan-23 18:15 45.024322 -109.250332 21 16088ft 372kts
12-Jan-23 18:16 45.116308 -109.183764 21 16106ft 370kts
12-Jan-23 18:17 45.208004 -109.116968 21 15310ft 368kts
12-Jan-23 18:18 45.293632 -109.054288 21 13324ft 331kts
12-Jan-23 18:19 45.373702 -108.995656 21 12114ft 315kts
12-Jan-23 18:20 45.449837 -108.939704 21 11469ft 308kts
12-Jan-23 18:21 45.504069 -108.848290 68 11073ft 314kts
12-Jan-23 18:22 45.528437 -108.727493 70 9177ft 305kts
12-Jan-23 18:23 45.551746 -108.617129 70 7913ft 283kts
12-Jan-23 18:24 45.574294 -108.516865 70 6741ft 257kts
12-Jan-23 18:25 45.597633 -108.421653 70 6033ft 243kts
12-Jan-23 18:26 45.619480 -108.334432 69 6031ft 233kts
12-Jan-23 18:27 45.665098 -108.283952 20 6037ft 204kts
12-Jan-23 18:28 45.717473 -108.250339 12 6031ft 204kts
12-Jan-23 18:29 45.751493 -108.285843 276 6028ft 157kts
12-Jan-23 18:30 45.758351 -108.346794 282 6013ft 154kts
12-Jan-23 18:31 45.772773 -108.406869 285 5505ft 172kts
12-Jan-23 18:32 45.787404 -108.461911 284 4958ft 142kts
12-Jan-23 18:33 45.801089 -108.512742 285 3730ft 118kts
12-Jan-23 18:34 45.807847 -108.537304 292 3620ft 30kts
12-Jan-23 18:35 45.807615 -108.540549 200 3620ft 0kts
12-Jan-23 18:36 45.806650 -108.539891 111 3621ft 14kts
12-Jan-23 18:37 45.804304 -108.538219 178 3621ft 0kts
12-Jan-23 18:38 45.804279 -108.538218 178 3621ft 0kts

Navigation Log

Ident Type
Flight plan parsing failed, navigation log unavailable